Search for airport 
image banner adimage banner adimage banner ad
image banner ad

0CA2 - Va Greater Los Angeles Health Care Center

Located in West Los Angeles, United States

ICAO - 0CA2, IATA -

Data provided by Airmate  

General information

Coordinates: N34°2'59" W118°27'22"
Elevation is 289 feet MSL.
Magnetic variation is 14° East
View others Airports in California

Operational data

Special qualification required
Current time UTC:
Current local time:
Weather at : KSMO - Santa Monica Muni ( 4 km )
METAR: KSMO 221251Z AUTO 22003KT 10SM CLR 16/13 A2993 RMK AO2 SLP133 T01610133
TAF: KSMO 221136Z 2212/2312 23004KT P6SM OVC011 FM221700 23008KT P6SM SCT010 FM230400 VRB03KT P6SM SKC FM230800 VRB03KT P6SM BKN009
View NOTAMs / SUP AIP / TFR affecting this airport [VIEW]
Communications frequencies: [VIEW]

Runways:

Airport contact information

Address: West Los Angeles United States

Satellite view of 0CA2